Bensenville, Illinois
Current Conditions -  °F | °C
As of 3:51 AM on Wednesday 26 Nov 2014 (Local Time) from KORD Reporting Station
Clear Clear  
Wind Chill:   Ceiling: Unl
Heat Index: 19°   Visibility: 8mi
Dew Point: 15°   Wind: 8mph
Humidity: 85%   Direction: 100°E
Pressure: 30.14"   Gusts: NA
Location:  41.96°N, 87.94°W
Report Text: KORD 260951Z 10007KT 8SM CLR M07/M09 A3014 RMK AO2 SLP218 T10721094
Loading
Personal Weather Stations






























Interactive Weather Map New forecast layout! Learn more

10-Day Weather Forecast

Advertisements
Track Severe Weather on mobile